sensor_id;sensor_type;location;lat;lon;timestamp;temperature;humidity
22321;DHT22;11328;53.928;18.522;2024-03-08T00:00:12;2.70;99.90
22321;DHT22;11328;53.928;18.522;2024-03-08T00:02:43;2.70;99.90
22321;DHT22;11328;53.928;18.522;2024-03-08T00:05:11;2.70;99.90
22321;DHT22;11328;53.928;18.522;2024-03-08T00:07:39;2.60;99.90
22321;DHT22;11328;53.928;18.522;2024-03-08T00:10:09;2.60;99.90
22321;DHT22;11328;53.928;18.522;2024-03-08T00:12:45;2.60;99.90
22321;DHT22;11328;53.928;18.522;2024-03-08T00:15:15;2.60;99.90
22321;DHT22;11328;53.928;18.522;2024-03-08T00:17:46;2.50;99.90
22321;DHT22;11328;53.928;18.522;2024-03-08T00:20:15;2.60;99.90
22321;DHT22;11328;53.928;18.522;2024-03-08T00:22:45;2.60;99.90
22321;DHT22;11328;53.928;18.522;2024-03-08T00:25:13;2.60;99.90
22321;DHT22;11328;53.928;18.522;2024-03-08T00:27:40;2.50;99.90
22321;DHT22;11328;53.928;18.522;2024-03-08T00:30:10;2.60;99.90
22321;DHT22;11328;53.928;18.522;2024-03-08T00:32:40;2.50;99.90
22321;DHT22;11328;53.928;18.522;2024-03-08T00:35:08;2.60;99.90
22321;DHT22;11328;53.928;18.522;2024-03-08T00:37:35;2.60;99.90
22321;DHT22;11328;53.928;18.522;2024-03-08T00:40:03;2.50;99.90
22321;DHT22;11328;53.928;18.522;2024-03-08T00:42:31;2.50;99.90
22321;DHT22;11328;53.928;18.522;2024-03-08T00:44:58;2.60;99.90
22321;DHT22;11328;53.928;18.522;2024-03-08T00:47:25;2.60;99.90
22321;DHT22;11328;53.928;18.522;2024-03-08T00:49:53;2.60;99.90
22321;DHT22;11328;53.928;18.522;2024-03-08T00:52:23;2.60;99.90
22321;DHT22;11328;53.928;18.522;2024-03-08T00:54:53;2.70;99.90
22321;DHT22;11328;53.928;18.522;2024-03-08T00:57:21;2.70;99.90
22321;DHT22;11328;53.928;18.522;2024-03-08T00:59:48;2.70;99.90
22321;DHT22;11328;53.928;18.522;2024-03-08T01:02:15;2.60;99.90
22321;DHT22;11328;53.928;18.522;2024-03-08T01:04:45;2.60;99.90
22321;DHT22;11328;53.928;18.522;2024-03-08T01:07:14;2.60;99.90
22321;DHT22;11328;53.928;18.522;2024-03-08T01:09:41;2.60;99.90
22321;DHT22;11328;53.928;18.522;2024-03-08T01:12:08;2.60;99.90
22321;DHT22;11328;53.928;18.522;2024-03-08T01:14:37;2.60;99.90
22321;DHT22;11328;53.928;18.522;2024-03-08T01:17:04;2.60;99.90
22321;DHT22;11328;53.928;18.522;2024-03-08T01:19:31;2.60;99.90
22321;DHT22;11328;53.928;18.522;2024-03-08T01:21:59;2.60;99.90
22321;DHT22;11328;53.928;18.522;2024-03-08T01:24:27;2.60;99.90
22321;DHT22;11328;53.928;18.522;2024-03-08T01:26:53;2.70;99.90
22321;DHT22;11328;53.928;18.522;2024-03-08T01:29:21;2.70;99.90
22321;DHT22;11328;53.928;18.522;2024-03-08T01:31:48;2.70;99.90
22321;DHT22;11328;53.928;18.522;2024-03-08T01:34:15;2.70;99.90
22321;DHT22;11328;53.928;18.522;2024-03-08T01:36:41;2.70;99.90
22321;DHT22;11328;53.928;18.522;2024-03-08T01:39:08;2.70;99.90
22321;DHT22;11328;53.928;18.522;2024-03-08T01:41:36;2.70;99.90
22321;DHT22;11328;53.928;18.522;2024-03-08T01:44:03;2.60;99.90
22321;DHT22;11328;53.928;18.522;2024-03-08T01:46:32;2.60;99.90
22321;DHT22;11328;53.928;18.522;2024-03-08T01:49:00;2.60;99.90
22321;DHT22;11328;53.928;18.522;2024-03-08T01:51:29;2.60;99.90
22321;DHT22;11328;53.928;18.522;2024-03-08T01:53:58;2.60;99.90
22321;DHT22;11328;53.928;18.522;2024-03-08T01:56:29;2.60;99.90
22321;DHT22;11328;53.928;18.522;2024-03-08T01:58:59;2.60;99.90
22321;DHT22;11328;53.928;18.522;2024-03-08T02:01:28;2.50;99.90
22321;DHT22;11328;53.928;18.522;2024-03-08T02:03:55;2.60;99.90
22321;DHT22;11328;53.928;18.522;2024-03-08T02:06:22;2.60;99.90
22321;DHT22;11328;53.928;18.522;2024-03-08T02:08:49;2.60;99.90
22321;DHT22;11328;53.928;18.522;2024-03-08T02:11:16;2.50;99.90
22321;DHT22;11328;53.928;18.522;2024-03-08T02:13:45;2.60;99.90
22321;DHT22;11328;53.928;18.522;2024-03-08T02:16:12;2.60;99.90
22321;DHT22;11328;53.928;18.522;2024-03-08T02:18:39;2.60;99.90
22321;DHT22;11328;53.928;18.522;2024-03-08T02:21:07;2.50;99.90
22321;DHT22;11328;53.928;18.522;2024-03-08T02:23:35;2.50;99.90
22321;DHT22;11328;53.928;18.522;2024-03-08T02:26:04;2.50;99.90
22321;DHT22;11328;53.928;18.522;2024-03-08T02:28:31;2.50;99.90
22321;DHT22;11328;53.928;18.522;2024-03-08T02:31:00;2.40;99.90
22321;DHT22;11328;53.928;18.522;2024-03-08T02:33:27;2.40;99.90
22321;DHT22;11328;53.928;18.522;2024-03-08T02:35:56;2.40;99.90
22321;DHT22;11328;53.928;18.522;2024-03-08T02:38:23;2.30;99.90
22321;DHT22;11328;53.928;18.522;2024-03-08T02:40:53;2.30;99.90
22321;DHT22;11328;53.928;18.522;2024-03-08T02:43:22;2.30;99.90
22321;DHT22;11328;53.928;18.522;2024-03-08T02:45:50;2.30;99.90
22321;DHT22;11328;53.928;18.522;2024-03-08T02:48:19;2.20;99.90
22321;DHT22;11328;53.928;18.522;2024-03-08T02:50:47;2.10;99.90
22321;DHT22;11328;53.928;18.522;2024-03-08T02:53:14;2.10;99.90
22321;DHT22;11328;53.928;18.522;2024-03-08T02:55:42;2.10;99.90
22321;DHT22;11328;53.928;18.522;2024-03-08T02:58:09;2.00;99.90
22321;DHT22;11328;53.928;18.522;2024-03-08T03:00:39;2.00;99.90
22321;DHT22;11328;53.928;18.522;2024-03-08T03:03:07;2.00;99.90
22321;DHT22;11328;53.928;18.522;2024-03-08T03:05:35;2.00;99.90
22321;DHT22;11328;53.928;18.522;2024-03-08T03:08:02;2.00;99.90
22321;DHT22;11328;53.928;18.522;2024-03-08T03:10:36;2.00;99.90
22321;DHT22;11328;53.928;18.522;2024-03-08T03:13:04;2.00;99.90
22321;DHT22;11328;53.928;18.522;2024-03-08T03:15:31;1.90;99.90
22321;DHT22;11328;53.928;18.522;2024-03-08T03:18:00;2.00;99.90
22321;DHT22;11328;53.928;18.522;2024-03-08T03:20:28;2.00;99.90
22321;DHT22;11328;53.928;18.522;2024-03-08T03:23:08;2.00;99.90
22321;DHT22;11328;53.928;18.522;2024-03-08T03:25:36;2.00;99.90
22321;DHT22;11328;53.928;18.522;2024-03-08T03:28:05;2.00;99.90
22321;DHT22;11328;53.928;18.522;2024-03-08T03:30:35;2.00;99.90
22321;DHT22;11328;53.928;18.522;2024-03-08T03:33:03;2.00;99.90
22321;DHT22;11328;53.928;18.522;2024-03-08T03:35:34;2.00;99.90
22321;DHT22;11328;53.928;18.522;2024-03-08T03:38:04;2.00;99.90
22321;DHT22;11328;53.928;18.522;2024-03-08T03:40:37;2.10;99.90
22321;DHT22;11328;53.928;18.522;2024-03-08T03:43:07;2.10;99.90
22321;DHT22;11328;53.928;18.522;2024-03-08T03:45:35;2.00;99.90
22321;DHT22;11328;53.928;18.522;2024-03-08T03:48:07;1.90;99.90
22321;DHT22;11328;53.928;18.522;2024-03-08T03:50:38;1.80;99.90
22321;DHT22;11328;53.928;18.522;2024-03-08T03:53:07;1.70;99.90
22321;DHT22;11328;53.928;18.522;2024-03-08T03:55:37;1.60;99.90
22321;DHT22;11328;53.928;18.522;2024-03-08T03:58:07;1.60;99.90
22321;DHT22;11328;53.928;18.522;2024-03-08T04:00:37;1.50;99.90
22321;DHT22;11328;53.928;18.522;2024-03-08T04:03:05;1.30;99.90
22321;DHT22;11328;53.928;18.522;2024-03-08T04:05:33;1.20;99.90
22321;DHT22;11328;53.928;18.522;2024-03-08T04:07:59;1.10;99.90
22321;DHT22;11328;53.928;18.522;2024-03-08T04:10:27;1.00;99.90
22321;DHT22;11328;53.928;18.522;2024-03-08T04:12:54;0.90;99.90
22321;DHT22;11328;53.928;18.522;2024-03-08T04:15:21;0.90;99.90
22321;DHT22;11328;53.928;18.522;2024-03-08T04:17:48;0.80;99.90
22321;DHT22;11328;53.928;18.522;2024-03-08T04:20:15;0.80;99.90
22321;DHT22;11328;53.928;18.522;2024-03-08T04:22:44;0.80;99.90
22321;DHT22;11328;53.928;18.522;2024-03-08T04:25:13;0.80;99.90
22321;DHT22;11328;53.928;18.522;2024-03-08T04:27:41;0.70;99.90
22321;DHT22;11328;53.928;18.522;2024-03-08T04:30:08;0.70;99.90
22321;DHT22;11328;53.928;18.522;2024-03-08T04:32:36;0.60;99.90
22321;DHT22;11328;53.928;18.522;2024-03-08T04:35:04;0.50;99.90
22321;DHT22;11328;53.928;18.522;2024-03-08T04:37:32;0.50;99.90
22321;DHT22;11328;53.928;18.522;2024-03-08T04:39:59;0.60;99.90
22321;DHT22;11328;53.928;18.522;2024-03-08T04:42:28;0.50;99.90
22321;DHT22;11328;53.928;18.522;2024-03-08T04:44:57;0.40;99.90
22321;DHT22;11328;53.928;18.522;2024-03-08T04:47:25;0.40;99.90
22321;DHT22;11328;53.928;18.522;2024-03-08T04:49:54;0.40;99.90
22321;DHT22;11328;53.928;18.522;2024-03-08T04:52:23;0.30;99.90
22321;DHT22;11328;53.928;18.522;2024-03-08T04:54:50;0.30;99.90
22321;DHT22;11328;53.928;18.522;2024-03-08T04:57:17;0.40;99.90
22321;DHT22;11328;53.928;18.522;2024-03-08T04:59:46;0.30;99.90
22321;DHT22;11328;53.928;18.522;2024-03-08T05:02:14;0.20;99.90
22321;DHT22;11328;53.928;18.522;2024-03-08T05:04:46;0.10;99.90
22321;DHT22;11328;53.928;18.522;2024-03-08T05:07:16;0.00;99.90
22321;DHT22;11328;53.928;18.522;2024-03-08T05:09:43;0.00;99.90
22321;DHT22;11328;53.928;18.522;2024-03-08T05:12:18;0.00;99.90
22321;DHT22;11328;53.928;18.522;2024-03-08T05:14:46;-0.20;99.90
22321;DHT22;11328;53.928;18.522;2024-03-08T05:17:17;-0.30;99.90
22321;DHT22;11328;53.928;18.522;2024-03-08T05:19:44;-0.20;99.90
22321;DHT22;11328;53.928;18.522;2024-03-08T05:22:11;-0.10;99.90
22321;DHT22;11328;53.928;18.522;2024-03-08T05:24:38;-0.20;99.90
22321;DHT22;11328;53.928;18.522;2024-03-08T05:27:05;-0.20;99.90
22321;DHT22;11328;53.928;18.522;2024-03-08T05:29:32;-0.20;99.90
22321;DHT22;11328;53.928;18.522;2024-03-08T05:32:00;-0.20;99.90
22321;DHT22;11328;53.928;18.522;2024-03-08T05:34:27;-0.20;99.90
22321;DHT22;11328;53.928;18.522;2024-03-08T05:36:55;-0.20;99.90
22321;DHT22;11328;53.928;18.522;2024-03-08T05:39:24;-0.20;99.90
22321;DHT22;11328;53.928;18.522;2024-03-08T05:41:52;-0.20;99.90
22321;DHT22;11328;53.928;18.522;2024-03-08T05:44:19;-0.20;99.90
22321;DHT22;11328;53.928;18.522;2024-03-08T05:46:46;-0.30;99.90
22321;DHT22;11328;53.928;18.522;2024-03-08T05:49:14;-0.20;99.90
22321;DHT22;11328;53.928;18.522;2024-03-08T05:51:41;-0.10;99.90
22321;DHT22;11328;53.928;18.522;2024-03-08T05:54:10;-0.10;99.90
22321;DHT22;11328;53.928;18.522;2024-03-08T05:56:42;-0.20;99.90
22321;DHT22;11328;53.928;18.522;2024-03-08T05:59:12;-0.20;99.90
22321;DHT22;11328;53.928;18.522;2024-03-08T06:01:40;-0.20;99.90
22321;DHT22;11328;53.928;18.522;2024-03-08T06:04:09;-0.30;99.90
22321;DHT22;11328;53.928;18.522;2024-03-08T06:06:38;-0.40;99.90
22321;DHT22;11328;53.928;18.522;2024-03-08T06:09:07;-0.40;99.90
22321;DHT22;11328;53.928;18.522;2024-03-08T06:11:38;-0.40;99.90
22321;DHT22;11328;53.928;18.522;2024-03-08T06:14:07;-0.40;99.90
22321;DHT22;11328;53.928;18.522;2024-03-08T06:16:34;-0.40;99.90
22321;DHT22;11328;53.928;18.522;2024-03-08T06:19:02;-0.30;99.90
22321;DHT22;11328;53.928;18.522;2024-03-08T06:21:30;-0.30;99.90
22321;DHT22;11328;53.928;18.522;2024-03-08T06:23:59;-0.20;99.90
22321;DHT22;11328;53.928;18.522;2024-03-08T06:26:26;-0.20;99.90
22321;DHT22;11328;53.928;18.522;2024-03-08T06:28:57;-0.10;99.90
22321;DHT22;11328;53.928;18.522;2024-03-08T06:31:25;0.00;99.90
22321;DHT22;11328;53.928;18.522;2024-03-08T06:33:52;0.00;99.90
22321;DHT22;11328;53.928;18.522;2024-03-08T06:36:22;0.10;99.90
22321;DHT22;11328;53.928;18.522;2024-03-08T06:38:50;0.20;99.90
22321;DHT22;11328;53.928;18.522;2024-03-08T06:41:18;0.30;99.90
22321;DHT22;11328;53.928;18.522;2024-03-08T06:43:48;0.50;99.90
22321;DHT22;11328;53.928;18.522;2024-03-08T06:46:18;0.60;99.90
22321;DHT22;11328;53.928;18.522;2024-03-08T06:48:47;0.70;99.90
22321;DHT22;11328;53.928;18.522;2024-03-08T06:51:17;0.90;99.90
22321;DHT22;11328;53.928;18.522;2024-03-08T06:53:44;1.00;99.90
22321;DHT22;11328;53.928;18.522;2024-03-08T06:56:11;1.20;99.90
22321;DHT22;11328;53.928;18.522;2024-03-08T06:58:38;1.40;99.90
22321;DHT22;11328;53.928;18.522;2024-03-08T07:01:05;1.60;99.90
22321;DHT22;11328;53.928;18.522;2024-03-08T07:03:35;1.70;99.90
22321;DHT22;11328;53.928;18.522;2024-03-08T07:06:02;1.80;99.90
22321;DHT22;11328;53.928;18.522;2024-03-08T07:08:31;1.70;99.90
22321;DHT22;11328;53.928;18.522;2024-03-08T07:10:59;1.80;99.90
22321;DHT22;11328;53.928;18.522;2024-03-08T07:13:27;2.00;99.90
22321;DHT22;11328;53.928;18.522;2024-03-08T07:15:57;2.00;99.90
22321;DHT22;11328;53.928;18.522;2024-03-08T07:18:27;2.10;99.90
22321;DHT22;11328;53.928;18.522;2024-03-08T07:20:57;2.20;99.90
22321;DHT22;11328;53.928;18.522;2024-03-08T07:23:24;2.30;99.90
22321;DHT22;11328;53.928;18.522;2024-03-08T07:26:17;2.40;99.90
22321;DHT22;11328;53.928;18.522;2024-03-08T07:28:45;2.40;99.90
22321;DHT22;11328;53.928;18.522;2024-03-08T07:31:12;2.50;99.90
22321;DHT22;11328;53.928;18.522;2024-03-08T07:33:49;2.60;99.90
22321;DHT22;11328;53.928;18.522;2024-03-08T07:36:17;2.60;99.90
22321;DHT22;11328;53.928;18.522;2024-03-08T07:38:44;2.60;99.90
22321;DHT22;11328;53.928;18.522;2024-03-08T07:41:15;2.60;99.90
22321;DHT22;11328;53.928;18.522;2024-03-08T07:43:42;2.60;99.90
22321;DHT22;11328;53.928;18.522;2024-03-08T07:46:10;2.60;99.90
22321;DHT22;11328;53.928;18.522;2024-03-08T07:48:37;2.70;99.90
22321;DHT22;11328;53.928;18.522;2024-03-08T07:51:04;2.80;99.90
22321;DHT22;11328;53.928;18.522;2024-03-08T07:53:32;2.70;99.90
22321;DHT22;11328;53.928;18.522;2024-03-08T07:55:59;2.80;99.90
22321;DHT22;11328;53.928;18.522;2024-03-08T07:58:26;2.70;99.90
22321;DHT22;11328;53.928;18.522;2024-03-08T08:00:55;2.70;99.90
22321;DHT22;11328;53.928;18.522;2024-03-08T08:03:22;2.80;99.90
22321;DHT22;11328;53.928;18.522;2024-03-08T08:05:49;2.80;99.90
22321;DHT22;11328;53.928;18.522;2024-03-08T08:08:18;2.80;99.90
22321;DHT22;11328;53.928;18.522;2024-03-08T08:10:45;2.90;99.90
22321;DHT22;11328;53.928;18.522;2024-03-08T08:13:12;3.00;99.90
22321;DHT22;11328;53.928;18.522;2024-03-08T08:15:39;3.00;99.90
22321;DHT22;11328;53.928;18.522;2024-03-08T08:18:07;3.00;99.90
22321;DHT22;11328;53.928;18.522;2024-03-08T08:20:36;3.00;99.90
22321;DHT22;11328;53.928;18.522;2024-03-08T08:23:04;3.10;99.90
22321;DHT22;11328;53.928;18.522;2024-03-08T08:25:31;3.10;99.90
22321;DHT22;11328;53.928;18.522;2024-03-08T08:28:01;3.20;99.90
22321;DHT22;11328;53.928;18.522;2024-03-08T08:30:30;3.10;99.90
22321;DHT22;11328;53.928;18.522;2024-03-08T08:33:00;3.20;99.90
22321;DHT22;11328;53.928;18.522;2024-03-08T08:35:27;3.20;99.90
22321;DHT22;11328;53.928;18.522;2024-03-08T08:37:55;3.30;99.90
22321;DHT22;11328;53.928;18.522;2024-03-08T08:40:22;3.40;99.90
22321;DHT22;11328;53.928;18.522;2024-03-08T08:42:52;3.50;99.90
22321;DHT22;11328;53.928;18.522;2024-03-08T08:45:24;3.50;99.90
22321;DHT22;11328;53.928;18.522;2024-03-08T08:47:53;3.50;99.90
22321;DHT22;11328;53.928;18.522;2024-03-08T08:50:22;3.70;99.90
22321;DHT22;11328;53.928;18.522;2024-03-08T08:52:53;3.60;99.90
22321;DHT22;11328;53.928;18.522;2024-03-08T08:55:21;3.60;99.90
22321;DHT22;11328;53.928;18.522;2024-03-08T08:57:52;3.70;99.90
22321;DHT22;11328;53.928;18.522;2024-03-08T09:00:20;3.80;99.90
22321;DHT22;11328;53.928;18.522;2024-03-08T09:02:48;3.80;99.90
22321;DHT22;11328;53.928;18.522;2024-03-08T09:05:15;3.90;99.90
22321;DHT22;11328;53.928;18.522;2024-03-08T09:07:44;4.10;99.90
22321;DHT22;11328;53.928;18.522;2024-03-08T09:10:12;4.50;99.90
22321;DHT22;11328;53.928;18.522;2024-03-08T09:12:44;4.60;99.90
22321;DHT22;11328;53.928;18.522;2024-03-08T09:15:12;4.60;99.90
22321;DHT22;11328;53.928;18.522;2024-03-08T09:17:40;4.70;99.90
22321;DHT22;11328;53.928;18.522;2024-03-08T09:20:09;4.80;99.90
22321;DHT22;11328;53.928;18.522;2024-03-08T09:22:37;4.90;99.90
22321;DHT22;11328;53.928;18.522;2024-03-08T09:25:05;4.90;99.90
22321;DHT22;11328;53.928;18.522;2024-03-08T09:27:32;5.00;99.90
22321;DHT22;11328;53.928;18.522;2024-03-08T09:30:05;4.90;99.90
22321;DHT22;11328;53.928;18.522;2024-03-08T09:32:34;5.00;99.90
22321;DHT22;11328;53.928;18.522;2024-03-08T09:35:01;5.00;99.90
22321;DHT22;11328;53.928;18.522;2024-03-08T09:37:29;5.10;99.90
22321;DHT22;11328;53.928;18.522;2024-03-08T09:39:57;5.10;99.90
22321;DHT22;11328;53.928;18.522;2024-03-08T09:42:26;5.10;99.90
22321;DHT22;11328;53.928;18.522;2024-03-08T09:44:53;5.20;99.90
22321;DHT22;11328;53.928;18.522;2024-03-08T09:47:22;5.20;99.90
22321;DHT22;11328;53.928;18.522;2024-03-08T09:49:55;5.20;99.90
22321;DHT22;11328;53.928;18.522;2024-03-08T09:52:23;5.40;99.90
22321;DHT22;11328;53.928;18.522;2024-03-08T09:54:50;5.50;99.90
22321;DHT22;11328;53.928;18.522;2024-03-08T09:57:18;5.50;99.90
22321;DHT22;11328;53.928;18.522;2024-03-08T09:59:46;5.50;99.90
22321;DHT22;11328;53.928;18.522;2024-03-08T10:02:15;5.60;99.90
22321;DHT22;11328;53.928;18.522;2024-03-08T10:04:43;5.70;99.90
22321;DHT22;11328;53.928;18.522;2024-03-08T10:07:13;5.80;99.90
22321;DHT22;11328;53.928;18.522;2024-03-08T10:09:40;5.80;99.90
22321;DHT22;11328;53.928;18.522;2024-03-08T10:12:15;5.80;99.90
22321;DHT22;11328;53.928;18.522;2024-03-08T10:14:43;5.90;99.90
22321;DHT22;11328;53.928;18.522;2024-03-08T10:17:11;5.90;99.90
22321;DHT22;11328;53.928;18.522;2024-03-08T10:19:38;6.10;99.90
22321;DHT22;11328;53.928;18.522;2024-03-08T10:22:05;6.30;99.90
22321;DHT22;11328;53.928;18.522;2024-03-08T10:24:33;6.40;99.90
22321;DHT22;11328;53.928;18.522;2024-03-08T10:27:04;6.50;99.90
22321;DHT22;11328;53.928;18.522;2024-03-08T10:29:32;6.80;99.90
22321;DHT22;11328;53.928;18.522;2024-03-08T10:31:59;6.90;99.90
22321;DHT22;11328;53.928;18.522;2024-03-08T10:34:28;6.90;99.90
22321;DHT22;11328;53.928;18.522;2024-03-08T10:37:02;6.90;99.90
22321;DHT22;11328;53.928;18.522;2024-03-08T10:39:35;6.90;99.90
22321;DHT22;11328;53.928;18.522;2024-03-08T10:42:05;6.70;99.90
22321;DHT22;11328;53.928;18.522;2024-03-08T10:45:05;6.70;99.90
22321;DHT22;11328;53.928;18.522;2024-03-08T10:47:41;6.60;99.90
22321;DHT22;11328;53.928;18.522;2024-03-08T10:50:20;6.70;99.90
22321;DHT22;11328;53.928;18.522;2024-03-08T10:52:52;6.90;99.90
22321;DHT22;11328;53.928;18.522;2024-03-08T10:55:19;7.00;99.90
22321;DHT22;11328;53.928;18.522;2024-03-08T10:57:49;6.80;99.90
22321;DHT22;11328;53.928;18.522;2024-03-08T11:00:18;6.90;99.90
22321;DHT22;11328;53.928;18.522;2024-03-08T11:02:54;6.90;99.90
22321;DHT22;11328;53.928;18.522;2024-03-08T11:05:40;6.90;99.90
22321;DHT22;11328;53.928;18.522;2024-03-08T11:16:09;7.20;99.90
22321;DHT22;11328;53.928;18.522;2024-03-08T11:18:37;7.20;99.90
22321;DHT22;11328;53.928;18.522;2024-03-08T11:21:08;7.10;99.90
22321;DHT22;11328;53.928;18.522;2024-03-08T11:23:39;7.20;99.90
22321;DHT22;11328;53.928;18.522;2024-03-08T11:26:21;7.10;99.90
22321;DHT22;11328;53.928;18.522;2024-03-08T11:28:50;7.10;99.90
22321;DHT22;11328;53.928;18.522;2024-03-08T11:31:24;7.10;99.90
22321;DHT22;11328;53.928;18.522;2024-03-08T11:33:53;7.10;99.90
22321;DHT22;11328;53.928;18.522;2024-03-08T11:36:22;7.20;99.90
22321;DHT22;11328;53.928;18.522;2024-03-08T11:38:52;7.30;99.90
22321;DHT22;11328;53.928;18.522;2024-03-08T11:41:22;7.50;99.90
22321;DHT22;11328;53.928;18.522;2024-03-08T11:44:04;7.60;99.90
22321;DHT22;11328;53.928;18.522;2024-03-08T11:46:33;7.60;99.90
22321;DHT22;11328;53.928;18.522;2024-03-08T11:49:00;7.60;99.90
22321;DHT22;11328;53.928;18.522;2024-03-08T11:51:28;7.70;99.90
22321;DHT22;11328;53.928;18.522;2024-03-08T11:53:56;7.80;99.90
22321;DHT22;11328;53.928;18.522;2024-03-08T11:56:25;7.90;99.90
22321;DHT22;11328;53.928;18.522;2024-03-08T11:58:56;8.00;99.90
22321;DHT22;11328;53.928;18.522;2024-03-08T12:01:24;8.10;99.90
22321;DHT22;11328;53.928;18.522;2024-03-08T12:03:56;8.20;99.90
22321;DHT22;11328;53.928;18.522;2024-03-08T12:06:27;8.30;99.90
22321;DHT22;11328;53.928;18.522;2024-03-08T12:09:11;8.30;99.90
22321;DHT22;11328;53.928;18.522;2024-03-08T12:11:41;8.20;99.90
22321;DHT22;11328;53.928;18.522;2024-03-08T12:14:11;8.20;99.90
22321;DHT22;11328;53.928;18.522;2024-03-08T12:16:39;8.20;99.90
22321;DHT22;11328;53.928;18.522;2024-03-08T12:19:08;8.10;99.90
22321;DHT22;11328;53.928;18.522;2024-03-08T12:21:36;8.10;99.90
22321;DHT22;11328;53.928;18.522;2024-03-08T12:24:09;8.00;99.90
22321;DHT22;11328;53.928;18.522;2024-03-08T12:26:38;8.10;99.90
22321;DHT22;11328;53.928;18.522;2024-03-08T12:29:20;8.10;99.90
22321;DHT22;11328;53.928;18.522;2024-03-08T12:31:58;8.20;99.90
22321;DHT22;11328;53.928;18.522;2024-03-08T12:34:27;8.20;99.90
22321;DHT22;11328;53.928;18.522;2024-03-08T12:36:55;8.30;99.90
22321;DHT22;11328;53.928;18.522;2024-03-08T12:39:22;8.30;99.90
22321;DHT22;11328;53.928;18.522;2024-03-08T12:41:54;8.20;99.90
22321;DHT22;11328;53.928;18.522;2024-03-08T12:44:26;8.30;99.90
22321;DHT22;11328;53.928;18.522;2024-03-08T12:46:54;8.30;99.90
22321;DHT22;11328;53.928;18.522;2024-03-08T12:49:23;8.40;99.90
22321;DHT22;11328;53.928;18.522;2024-03-08T12:51:50;8.40;99.90
22321;DHT22;11328;53.928;18.522;2024-03-08T12:54:19;8.30;99.90
22321;DHT22;11328;53.928;18.522;2024-03-08T12:56:50;8.40;99.90
22321;DHT22;11328;53.928;18.522;2024-03-08T12:59:21;8.40;99.90
22321;DHT22;11328;53.928;18.522;2024-03-08T13:01:50;8.30;99.90
22321;DHT22;11328;53.928;18.522;2024-03-08T13:04:19;8.30;99.90
22321;DHT22;11328;53.928;18.522;2024-03-08T13:06:48;8.40;99.90
22321;DHT22;11328;53.928;18.522;2024-03-08T13:09:21;8.40;99.90
22321;DHT22;11328;53.928;18.522;2024-03-08T13:11:48;8.40;99.90
22321;DHT22;11328;53.928;18.522;2024-03-08T13:14:16;8.40;99.90
22321;DHT22;11328;53.928;18.522;2024-03-08T13:16:43;8.40;99.90
22321;DHT22;11328;53.928;18.522;2024-03-08T13:19:15;8.40;99.90
22321;DHT22;11328;53.928;18.522;2024-03-08T13:21:43;8.40;99.90
22321;DHT22;11328;53.928;18.522;2024-03-08T13:24:10;8.40;99.90
22321;DHT22;11328;53.928;18.522;2024-03-08T13:26:38;8.40;99.90
22321;DHT22;11328;53.928;18.522;2024-03-08T13:29:05;8.50;99.90
22321;DHT22;11328;53.928;18.522;2024-03-08T13:31:33;8.40;99.90
22321;DHT22;11328;53.928;18.522;2024-03-08T13:34:03;8.50;99.90
22321;DHT22;11328;53.928;18.522;2024-03-08T13:36:31;8.40;99.90
22321;DHT22;11328;53.928;18.522;2024-03-08T13:39:05;8.40;99.90
22321;DHT22;11328;53.928;18.522;2024-03-08T13:41:42;8.50;99.90
22321;DHT22;11328;53.928;18.522;2024-03-08T13:44:10;8.40;99.90
22321;DHT22;11328;53.928;18.522;2024-03-08T13:46:38;8.40;99.90
22321;DHT22;11328;53.928;18.522;2024-03-08T13:49:06;8.30;99.90
22321;DHT22;11328;53.928;18.522;2024-03-08T13:51:36;8.30;99.90
22321;DHT22;11328;53.928;18.522;2024-03-08T13:54:06;8.30;99.90
22321;DHT22;11328;53.928;18.522;2024-03-08T13:56:37;8.20;99.90
22321;DHT22;11328;53.928;18.522;2024-03-08T13:59:04;8.30;99.90
22321;DHT22;11328;53.928;18.522;2024-03-08T14:01:31;8.30;99.90
22321;DHT22;11328;53.928;18.522;2024-03-08T14:03:58;8.20;99.90
22321;DHT22;11328;53.928;18.522;2024-03-08T14:06:26;8.30;99.90
22321;DHT22;11328;53.928;18.522;2024-03-08T14:08:53;8.20;99.90
22321;DHT22;11328;53.928;18.522;2024-03-08T14:11:24;8.20;99.90
22321;DHT22;11328;53.928;18.522;2024-03-08T14:13:52;8.20;99.90
22321;DHT22;11328;53.928;18.522;2024-03-08T14:16:20;8.30;99.90
22321;DHT22;11328;53.928;18.522;2024-03-08T14:18:47;8.20;99.90
22321;DHT22;11328;53.928;18.522;2024-03-08T14:21:14;8.20;99.90
22321;DHT22;11328;53.928;18.522;2024-03-08T14:23:42;8.20;99.90
22321;DHT22;11328;53.928;18.522;2024-03-08T14:26:09;8.30;99.90
22321;DHT22;11328;53.928;18.522;2024-03-08T14:28:38;8.30;99.90
22321;DHT22;11328;53.928;18.522;2024-03-08T14:31:05;8.30;99.90
22321;DHT22;11328;53.928;18.522;2024-03-08T14:33:37;8.30;99.90
22321;DHT22;11328;53.928;18.522;2024-03-08T14:36:05;8.30;99.90
22321;DHT22;11328;53.928;18.522;2024-03-08T14:38:33;8.30;99.90
22321;DHT22;11328;53.928;18.522;2024-03-08T14:41:01;8.40;99.90
22321;DHT22;11328;53.928;18.522;2024-03-08T14:43:31;8.40;99.90
22321;DHT22;11328;53.928;18.522;2024-03-08T14:45:59;8.40;99.90
22321;DHT22;11328;53.928;18.522;2024-03-08T14:48:26;8.40;99.90
22321;DHT22;11328;53.928;18.522;2024-03-08T14:50:53;8.40;99.90
22321;DHT22;11328;53.928;18.522;2024-03-08T14:53:20;8.30;99.90
22321;DHT22;11328;53.928;18.522;2024-03-08T14:55:48;8.30;99.90
22321;DHT22;11328;53.928;18.522;2024-03-08T14:58:15;8.40;99.90
22321;DHT22;11328;53.928;18.522;2024-03-08T15:00:42;8.40;99.90
22321;DHT22;11328;53.928;18.522;2024-03-08T15:03:10;8.40;99.90
22321;DHT22;11328;53.928;18.522;2024-03-08T15:05:40;8.40;99.90
22321;DHT22;11328;53.928;18.522;2024-03-08T15:08:14;8.40;99.90
22321;DHT22;11328;53.928;18.522;2024-03-08T15:10:47;8.40;99.90
22321;DHT22;11328;53.928;18.522;2024-03-08T15:13:21;8.40;99.90
22321;DHT22;11328;53.928;18.522;2024-03-08T15:15:51;8.30;99.90
22321;DHT22;11328;53.928;18.522;2024-03-08T15:18:25;8.30;99.90
22321;DHT22;11328;53.928;18.522;2024-03-08T15:20:53;8.20;99.90
22321;DHT22;11328;53.928;18.522;2024-03-08T15:23:20;8.20;99.90
22321;DHT22;11328;53.928;18.522;2024-03-08T15:25:48;8.10;99.90
22321;DHT22;11328;53.928;18.522;2024-03-08T15:28:18;8.10;99.90
22321;DHT22;11328;53.928;18.522;2024-03-08T15:30:53;8.00;99.90
22321;DHT22;11328;53.928;18.522;2024-03-08T15:33:22;8.00;99.90
22321;DHT22;11328;53.928;18.522;2024-03-08T15:35:54;7.90;99.90
22321;DHT22;11328;53.928;18.522;2024-03-08T15:38:26;7.90;99.90
22321;DHT22;11328;53.928;18.522;2024-03-08T15:40:57;7.80;99.90
22321;DHT22;11328;53.928;18.522;2024-03-08T15:43:25;7.80;99.90
22321;DHT22;11328;53.928;18.522;2024-03-08T15:45:52;7.70;99.90
22321;DHT22;11328;53.928;18.522;2024-03-08T15:48:21;7.70;99.90